sensor_id;sensor_type;location;lat;lon;timestamp;P1;durP1;ratioP1;P2;durP2;ratioP2
25023;SDS011;13033;50.936;5.334;2023-08-24T00:00:16;11.07;;;7.95;;
25023;SDS011;13033;50.936;5.334;2023-08-24T00:02:43;13.57;;;7.32;;
25023;SDS011;13033;50.936;5.334;2023-08-24T00:05:08;9.27;;;7.30;;
25023;SDS011;13033;50.936;5.334;2023-08-24T00:07:34;12.52;;;7.40;;
25023;SDS011;13033;50.936;5.334;2023-08-24T00:10:00;13.32;;;7.30;;
25023;SDS011;13033;50.936;5.334;2023-08-24T00:12:26;11.48;;;6.82;;
25023;SDS011;13033;50.936;5.334;2023-08-24T00:14:51;12.23;;;6.50;;
25023;SDS011;13033;50.936;5.334;2023-08-24T00:17:17;10.82;;;6.72;;
25023;SDS011;13033;50.936;5.334;2023-08-24T00:19:43;11.02;;;7.40;;
25023;SDS011;13033;50.936;5.334;2023-08-24T00:22:08;11.05;;;6.93;;
25023;SDS011;13033;50.936;5.334;2023-08-24T00:24:34;12.70;;;8.05;;
25023;SDS011;13033;50.936;5.334;2023-08-24T00:27:00;18.60;;;7.85;;
25023;SDS011;13033;50.936;5.334;2023-08-24T00:29:25;15.55;;;8.75;;
25023;SDS011;13033;50.936;5.334;2023-08-24T00:31:51;16.08;;;8.35;;
25023;SDS011;13033;50.936;5.334;2023-08-24T00:34:17;13.52;;;8.52;;
25023;SDS011;13033;50.936;5.334;2023-08-24T00:36:42;11.88;;;8.15;;
25023;SDS011;13033;50.936;5.334;2023-08-24T00:39:08;12.55;;;8.95;;
25023;SDS011;13033;50.936;5.334;2023-08-24T00:41:33;12.23;;;8.38;;
25023;SDS011;13033;50.936;5.334;2023-08-24T00:43:59;14.70;;;8.88;;
25023;SDS011;13033;50.936;5.334;2023-08-24T00:46:25;14.05;;;9.18;;
25023;SDS011;13033;50.936;5.334;2023-08-24T00:48:53;12.65;;;9.13;;
25023;SDS011;13033;50.936;5.334;2023-08-24T00:51:22;12.75;;;8.40;;
25023;SDS011;13033;50.936;5.334;2023-08-24T00:53:48;16.00;;;9.05;;
25023;SDS011;13033;50.936;5.334;2023-08-24T00:56:14;11.25;;;8.57;;
25023;SDS011;13033;50.936;5.334;2023-08-24T00:58:40;11.95;;;9.00;;
25023;SDS011;13033;50.936;5.334;2023-08-24T01:01:06;13.98;;;9.70;;
25023;SDS011;13033;50.936;5.334;2023-08-24T01:03:32;16.63;;;10.07;;
25023;SDS011;13033;50.936;5.334;2023-08-24T01:05:58;16.83;;;10.15;;
25023;SDS011;13033;50.936;5.334;2023-08-24T01:08:24;19.10;;;10.65;;
25023;SDS011;13033;50.936;5.334;2023-08-24T01:16:18;15.35;;;9.85;;
25023;SDS011;13033;50.936;5.334;2023-08-24T01:18:51;13.30;;;9.52;;
25023;SDS011;13033;50.936;5.334;2023-08-24T01:21:24;12.40;;;9.77;;
25023;SDS011;13033;50.936;5.334;2023-08-24T01:26:35;16.92;;;10.18;;
25023;SDS011;13033;50.936;5.334;2023-08-24T01:29:01;14.30;;;10.20;;
25023;SDS011;13033;50.936;5.334;2023-08-24T01:31:29;13.98;;;9.90;;
25023;SDS011;13033;50.936;5.334;2023-08-24T01:33:55;13.05;;;9.35;;
25023;SDS011;13033;50.936;5.334;2023-08-24T01:36:21;14.25;;;9.43;;
25023;SDS011;13033;50.936;5.334;2023-08-24T01:38:49;14.80;;;8.85;;
25023;SDS011;13033;50.936;5.334;2023-08-24T01:41:33;14.10;;;9.48;;
25023;SDS011;13033;50.936;5.334;2023-08-24T01:44:07;13.05;;;9.57;;
25023;SDS011;13033;50.936;5.334;2023-08-24T01:46:37;12.95;;;9.38;;
25023;SDS011;13033;50.936;5.334;2023-08-24T01:49:04;14.30;;;9.00;;
25023;SDS011;13033;50.936;5.334;2023-08-24T01:51:33;12.43;;;9.32;;
25023;SDS011;13033;50.936;5.334;2023-08-24T01:53:59;12.00;;;9.93;;
25023;SDS011;13033;50.936;5.334;2023-08-24T01:56:25;14.25;;;8.80;;
25023;SDS011;13033;50.936;5.334;2023-08-24T01:58:51;14.57;;;9.68;;
25023;SDS011;13033;50.936;5.334;2023-08-24T02:01:17;15.38;;;8.70;;
25023;SDS011;13033;50.936;5.334;2023-08-24T02:03:43;11.15;;;8.48;;
25023;SDS011;13033;50.936;5.334;2023-08-24T02:06:08;14.32;;;8.55;;
25023;SDS011;13033;50.936;5.334;2023-08-24T02:08:34;15.18;;;9.05;;
25023;SDS011;13033;50.936;5.334;2023-08-24T02:11:00;11.00;;;8.77;;
25023;SDS011;13033;50.936;5.334;2023-08-24T02:13:26;13.23;;;8.57;;
25023;SDS011;13033;50.936;5.334;2023-08-24T02:16:00;16.42;;;8.75;;
25023;SDS011;13033;50.936;5.334;2023-08-24T02:18:34;14.25;;;8.85;;
25023;SDS011;13033;50.936;5.334;2023-08-24T02:20:59;12.57;;;8.73;;
25023;SDS011;13033;50.936;5.334;2023-08-24T02:23:25;11.30;;;7.90;;
25023;SDS011;13033;50.936;5.334;2023-08-24T02:25:51;15.35;;;8.02;;
25023;SDS011;13033;50.936;5.334;2023-08-24T02:28:16;12.63;;;8.68;;
25023;SDS011;13033;50.936;5.334;2023-08-24T02:30:42;13.05;;;8.43;;
25023;SDS011;13033;50.936;5.334;2023-08-24T02:33:08;12.10;;;8.02;;
25023;SDS011;13033;50.936;5.334;2023-08-24T02:35:33;13.70;;;7.35;;
25023;SDS011;13033;50.936;5.334;2023-08-24T02:37:59;12.10;;;7.82;;
25023;SDS011;13033;50.936;5.334;2023-08-24T02:40:25;12.75;;;7.93;;
25023;SDS011;13033;50.936;5.334;2023-08-24T02:42:50;15.80;;;7.93;;
25023;SDS011;13033;50.936;5.334;2023-08-24T02:45:16;11.85;;;7.30;;
25023;SDS011;13033;50.936;5.334;2023-08-24T02:47:42;14.73;;;8.05;;
25023;SDS011;13033;50.936;5.334;2023-08-24T02:50:07;11.43;;;7.93;;
25023;SDS011;13033;50.936;5.334;2023-08-24T02:52:33;13.95;;;7.80;;
25023;SDS011;13033;50.936;5.334;2023-08-24T02:54:59;11.40;;;7.40;;
25023;SDS011;13033;50.936;5.334;2023-08-24T02:57:25;13.63;;;7.60;;
25023;SDS011;13033;50.936;5.334;2023-08-24T02:59:50;13.23;;;8.13;;
25023;SDS011;13033;50.936;5.334;2023-08-24T03:02:16;15.15;;;8.85;;
25023;SDS011;13033;50.936;5.334;2023-08-24T03:04:42;14.75;;;9.65;;
25023;SDS011;13033;50.936;5.334;2023-08-24T03:07:07;16.75;;;9.00;;
25023;SDS011;13033;50.936;5.334;2023-08-24T03:09:35;12.25;;;9.73;;
25023;SDS011;13033;50.936;5.334;2023-08-24T03:12:01;14.48;;;9.73;;
25023;SDS011;13033;50.936;5.334;2023-08-24T03:14:27;18.33;;;11.35;;
25023;SDS011;13033;50.936;5.334;2023-08-24T03:16:53;16.40;;;11.57;;
25023;SDS011;13033;50.936;5.334;2023-08-24T03:19:18;16.85;;;11.63;;
25023;SDS011;13033;50.936;5.334;2023-08-24T03:21:44;15.30;;;11.25;;
25023;SDS011;13033;50.936;5.334;2023-08-24T03:24:10;17.25;;;11.73;;
25023;SDS011;13033;50.936;5.334;2023-08-24T03:26:36;13.90;;;10.63;;
25023;SDS011;13033;50.936;5.334;2023-08-24T03:29:02;16.20;;;11.02;;
25023;SDS011;13033;50.936;5.334;2023-08-24T03:31:27;17.55;;;11.13;;
25023;SDS011;13033;50.936;5.334;2023-08-24T03:33:54;16.10;;;10.60;;
25023;SDS011;13033;50.936;5.334;2023-08-24T03:36:19;18.25;;;10.35;;
25023;SDS011;13033;50.936;5.334;2023-08-24T03:38:45;15.45;;;10.15;;
25023;SDS011;13033;50.936;5.334;2023-08-24T03:41:11;14.35;;;10.23;;
25023;SDS011;13033;50.936;5.334;2023-08-24T03:43:37;15.38;;;9.32;;
25023;SDS011;13033;50.936;5.334;2023-08-24T03:46:03;13.80;;;8.95;;
25023;SDS011;13033;50.936;5.334;2023-08-24T03:48:30;11.77;;;9.13;;
25023;SDS011;13033;50.936;5.334;2023-08-24T03:50:57;15.02;;;8.82;;
25023;SDS011;13033;50.936;5.334;2023-08-24T03:53:23;15.45;;;9.05;;
25023;SDS011;13033;50.936;5.334;2023-08-24T03:55:50;13.13;;;9.25;;
25023;SDS011;13033;50.936;5.334;2023-08-24T03:58:16;15.55;;;9.38;;
25023;SDS011;13033;50.936;5.334;2023-08-24T04:00:42;16.83;;;9.35;;
25023;SDS011;13033;50.936;5.334;2023-08-24T04:03:09;14.32;;;9.35;;
25023;SDS011;13033;50.936;5.334;2023-08-24T04:05:34;14.18;;;8.45;;
25023;SDS011;13033;50.936;5.334;2023-08-24T04:08:00;13.57;;;9.20;;
25023;SDS011;13033;50.936;5.334;2023-08-24T04:10:27;13.52;;;9.05;;
25023;SDS011;13033;50.936;5.334;2023-08-24T04:13:00;13.10;;;9.00;;
25023;SDS011;13033;50.936;5.334;2023-08-24T04:15:25;12.27;;;8.73;;
25023;SDS011;13033;50.936;5.334;2023-08-24T04:17:51;15.55;;;8.20;;
25023;SDS011;13033;50.936;5.334;2023-08-24T04:20:17;13.38;;;8.60;;
25023;SDS011;13033;50.936;5.334;2023-08-24T04:22:43;10.70;;;9.10;;
25023;SDS011;13033;50.936;5.334;2023-08-24T04:25:08;13.30;;;9.02;;
25023;SDS011;13033;50.936;5.334;2023-08-24T04:27:34;14.02;;;9.15;;
25023;SDS011;13033;50.936;5.334;2023-08-24T04:30:01;15.63;;;9.38;;
25023;SDS011;13033;50.936;5.334;2023-08-24T04:32:28;19.75;;;9.50;;
25023;SDS011;13033;50.936;5.334;2023-08-24T04:34:54;17.48;;;9.25;;
25023;SDS011;13033;50.936;5.334;2023-08-24T04:37:19;18.25;;;10.25;;
25023;SDS011;13033;50.936;5.334;2023-08-24T04:39:45;13.90;;;9.73;;
25023;SDS011;13033;50.936;5.334;2023-08-24T04:42:11;17.83;;;9.75;;
25023;SDS011;13033;50.936;5.334;2023-08-24T04:44:37;13.00;;;9.18;;
25023;SDS011;13033;50.936;5.334;2023-08-24T04:47:02;14.95;;;9.80;;
25023;SDS011;13033;50.936;5.334;2023-08-24T04:49:29;13.90;;;9.55;;
25023;SDS011;13033;50.936;5.334;2023-08-24T04:51:55;15.38;;;10.38;;
25023;SDS011;13033;50.936;5.334;2023-08-24T04:54:21;16.95;;;9.95;;
25023;SDS011;13033;50.936;5.334;2023-08-24T04:56:47;19.75;;;9.60;;
25023;SDS011;13033;50.936;5.334;2023-08-24T04:59:12;17.52;;;10.63;;
25023;SDS011;13033;50.936;5.334;2023-08-24T05:01:39;17.38;;;10.93;;
25023;SDS011;13033;50.936;5.334;2023-08-24T05:04:04;16.58;;;10.50;;
25023;SDS011;13033;50.936;5.334;2023-08-24T05:06:30;18.65;;;11.35;;
25023;SDS011;13033;50.936;5.334;2023-08-24T05:08:56;17.40;;;10.65;;
25023;SDS011;13033;50.936;5.334;2023-08-24T05:11:22;15.50;;;10.45;;
25023;SDS011;13033;50.936;5.334;2023-08-24T05:13:51;18.83;;;11.10;;
25023;SDS011;13033;50.936;5.334;2023-08-24T05:16:17;18.27;;;11.32;;
25023;SDS011;13033;50.936;5.334;2023-08-24T05:18:44;18.65;;;11.63;;
25023;SDS011;13033;50.936;5.334;2023-08-24T05:21:11;18.63;;;10.80;;
25023;SDS011;13033;50.936;5.334;2023-08-24T05:23:36;16.65;;;11.18;;
25023;SDS011;13033;50.936;5.334;2023-08-24T05:26:02;17.60;;;11.70;;
25023;SDS011;13033;50.936;5.334;2023-08-24T05:28:29;18.05;;;10.38;;
25023;SDS011;13033;50.936;5.334;2023-08-24T05:30:55;18.77;;;10.45;;
25023;SDS011;13033;50.936;5.334;2023-08-24T05:33:22;16.25;;;10.85;;
25023;SDS011;13033;50.936;5.334;2023-08-24T05:35:49;19.38;;;10.50;;
25023;SDS011;13033;50.936;5.334;2023-08-24T05:38:15;22.02;;;11.50;;
25023;SDS011;13033;50.936;5.334;2023-08-24T05:40:42;20.17;;;11.15;;
25023;SDS011;13033;50.936;5.334;2023-08-24T05:43:09;17.67;;;10.93;;
25023;SDS011;13033;50.936;5.334;2023-08-24T05:45:35;19.25;;;11.32;;
25023;SDS011;13033;50.936;5.334;2023-08-24T05:48:01;21.08;;;12.82;;
25023;SDS011;13033;50.936;5.334;2023-08-24T05:50:26;24.25;;;11.93;;
25023;SDS011;13033;50.936;5.334;2023-08-24T05:52:52;16.98;;;11.93;;
25023;SDS011;13033;50.936;5.334;2023-08-24T05:55:18;18.80;;;11.80;;
25023;SDS011;13033;50.936;5.334;2023-08-24T05:57:45;24.85;;;12.07;;
25023;SDS011;13033;50.936;5.334;2023-08-24T06:00:11;22.15;;;11.80;;
25023;SDS011;13033;50.936;5.334;2023-08-24T06:02:37;24.08;;;13.02;;
25023;SDS011;13033;50.936;5.334;2023-08-24T06:05:03;17.05;;;12.05;;
25023;SDS011;13033;50.936;5.334;2023-08-24T06:07:31;18.38;;;11.88;;
25023;SDS011;13033;50.936;5.334;2023-08-24T06:09:57;19.58;;;12.23;;
25023;SDS011;13033;50.936;5.334;2023-08-24T06:12:23;20.65;;;12.60;;
25023;SDS011;13033;50.936;5.334;2023-08-24T06:14:49;21.67;;;12.35;;
25023;SDS011;13033;50.936;5.334;2023-08-24T06:17:15;20.65;;;12.27;;
25023;SDS011;13033;50.936;5.334;2023-08-24T06:19:40;25.27;;;12.40;;
25023;SDS011;13033;50.936;5.334;2023-08-24T06:22:06;21.60;;;12.73;;
25023;SDS011;13033;50.936;5.334;2023-08-24T06:24:32;24.17;;;12.23;;
25023;SDS011;13033;50.936;5.334;2023-08-24T06:26:58;21.85;;;12.48;;
25023;SDS011;13033;50.936;5.334;2023-08-24T06:29:24;16.75;;;11.55;;
25023;SDS011;13033;50.936;5.334;2023-08-24T06:31:49;18.20;;;12.23;;
25023;SDS011;13033;50.936;5.334;2023-08-24T06:34:15;27.05;;;12.10;;
25023;SDS011;13033;50.936;5.334;2023-08-24T06:36:41;23.25;;;12.18;;
25023;SDS011;13033;50.936;5.334;2023-08-24T06:39:06;19.58;;;11.20;;
25023;SDS011;13033;50.936;5.334;2023-08-24T06:41:33;20.17;;;11.68;;
25023;SDS011;13033;50.936;5.334;2023-08-24T06:44:00;20.73;;;10.27;;
25023;SDS011;13033;50.936;5.334;2023-08-24T06:46:26;16.85;;;10.63;;
25023;SDS011;13033;50.936;5.334;2023-08-24T06:48:52;16.02;;;10.40;;
25023;SDS011;13033;50.936;5.334;2023-08-24T06:51:17;18.83;;;9.98;;
25023;SDS011;13033;50.936;5.334;2023-08-24T06:53:43;19.40;;;10.43;;
25023;SDS011;13033;50.936;5.334;2023-08-24T06:56:09;19.73;;;10.13;;
25023;SDS011;13033;50.936;5.334;2023-08-24T06:58:35;20.70;;;10.10;;
25023;SDS011;13033;50.936;5.334;2023-08-24T07:01:01;18.67;;;9.75;;
25023;SDS011;13033;50.936;5.334;2023-08-24T07:03:30;16.08;;;9.50;;
25023;SDS011;13033;50.936;5.334;2023-08-24T07:05:58;16.15;;;8.85;;
25023;SDS011;13033;50.936;5.334;2023-08-24T07:08:24;15.75;;;9.18;;
25023;SDS011;13033;50.936;5.334;2023-08-24T07:10:50;17.17;;;9.13;;
25023;SDS011;13033;50.936;5.334;2023-08-24T07:13:16;14.35;;;8.05;;
25023;SDS011;13033;50.936;5.334;2023-08-24T07:15:42;14.02;;;7.90;;
25023;SDS011;13033;50.936;5.334;2023-08-24T07:18:08;14.98;;;8.50;;
25023;SDS011;13033;50.936;5.334;2023-08-24T07:20:34;17.63;;;8.63;;
25023;SDS011;13033;50.936;5.334;2023-08-24T07:23:00;15.38;;;8.27;;
25023;SDS011;13033;50.936;5.334;2023-08-24T07:25:26;11.40;;;7.13;;
25023;SDS011;13033;50.936;5.334;2023-08-24T07:27:53;16.83;;;7.85;;
25023;SDS011;13033;50.936;5.334;2023-08-24T07:30:23;13.85;;;7.70;;
25023;SDS011;13033;50.936;5.334;2023-08-24T07:32:50;15.57;;;8.60;;
25023;SDS011;13033;50.936;5.334;2023-08-24T07:35:15;13.05;;;7.82;;
25023;SDS011;13033;50.936;5.334;2023-08-24T07:37:41;16.60;;;7.65;;
25023;SDS011;13033;50.936;5.334;2023-08-24T07:40:07;13.73;;;7.63;;
25023;SDS011;13033;50.936;5.334;2023-08-24T07:42:42;12.00;;;7.18;;
25023;SDS011;13033;50.936;5.334;2023-08-24T07:45:12;15.13;;;7.15;;
25023;SDS011;13033;50.936;5.334;2023-08-24T07:47:39;11.18;;;6.43;;
25023;SDS011;13033;50.936;5.334;2023-08-24T07:50:05;10.80;;;6.43;;
25023;SDS011;13033;50.936;5.334;2023-08-24T07:52:32;11.75;;;6.32;;
25023;SDS011;13033;50.936;5.334;2023-08-24T07:54:58;10.48;;;6.25;;
25023;SDS011;13033;50.936;5.334;2023-08-24T07:57:25;10.45;;;6.18;;
25023;SDS011;13033;50.936;5.334;2023-08-24T07:59:51;11.57;;;5.53;;
25023;SDS011;13033;50.936;5.334;2023-08-24T08:02:17;12.73;;;6.18;;
25023;SDS011;13033;50.936;5.334;2023-08-24T08:04:43;11.38;;;5.72;;
25023;SDS011;13033;50.936;5.334;2023-08-24T08:07:09;8.40;;;5.05;;
25023;SDS011;13033;50.936;5.334;2023-08-24T08:09:36;9.15;;;5.05;;
25023;SDS011;13033;50.936;5.334;2023-08-24T08:12:02;10.05;;;5.00;;
25023;SDS011;13033;50.936;5.334;2023-08-24T08:14:28;8.82;;;4.53;;
25023;SDS011;13033;50.936;5.334;2023-08-24T08:16:54;7.40;;;4.60;;
25023;SDS011;13033;50.936;5.334;2023-08-24T08:19:21;8.52;;;4.80;;
25023;SDS011;13033;50.936;5.334;2023-08-24T08:21:47;7.75;;;4.88;;
25023;SDS011;13033;50.936;5.334;2023-08-24T08:24:13;6.68;;;4.55;;
25023;SDS011;13033;50.936;5.334;2023-08-24T08:26:38;7.80;;;4.55;;
25023;SDS011;13033;50.936;5.334;2023-08-24T08:29:04;8.88;;;4.70;;
25023;SDS011;13033;50.936;5.334;2023-08-24T08:31:30;7.47;;;4.35;;
25023;SDS011;13033;50.936;5.334;2023-08-24T08:33:56;9.68;;;4.50;;
25023;SDS011;13033;50.936;5.334;2023-08-24T08:36:22;11.00;;;4.63;;
25023;SDS011;13033;50.936;5.334;2023-08-24T08:38:47;8.95;;;4.57;;
25023;SDS011;13033;50.936;5.334;2023-08-24T08:41:14;9.20;;;4.85;;
25023;SDS011;13033;50.936;5.334;2023-08-24T08:43:42;9.70;;;4.70;;
25023;SDS011;13033;50.936;5.334;2023-08-24T08:46:07;11.98;;;5.00;;
25023;SDS011;13033;50.936;5.334;2023-08-24T08:48:34;9.18;;;5.10;;
25023;SDS011;13033;50.936;5.334;2023-08-24T08:51:01;9.13;;;5.00;;
25023;SDS011;13033;50.936;5.334;2023-08-24T08:53:27;9.10;;;4.75;;
25023;SDS011;13033;50.936;5.334;2023-08-24T08:55:53;9.63;;;4.80;;
25023;SDS011;13033;50.936;5.334;2023-08-24T08:58:20;8.90;;;4.60;;
25023;SDS011;13033;50.936;5.334;2023-08-24T09:00:47;8.00;;;4.40;;
25023;SDS011;13033;50.936;5.334;2023-08-24T09:03:16;7.68;;;4.78;;
25023;SDS011;13033;50.936;5.334;2023-08-24T09:05:43;8.57;;;4.82;;
25023;SDS011;13033;50.936;5.334;2023-08-24T09:08:13;10.65;;;4.65;;
25023;SDS011;13033;50.936;5.334;2023-08-24T09:10:41;9.82;;;4.65;;
25023;SDS011;13033;50.936;5.334;2023-08-24T09:13:07;8.27;;;4.63;;
25023;SDS011;13033;50.936;5.334;2023-08-24T09:15:34;9.18;;;4.72;;
25023;SDS011;13033;50.936;5.334;2023-08-24T09:18:01;10.95;;;5.00;;
25023;SDS011;13033;50.936;5.334;2023-08-24T09:20:27;9.13;;;5.35;;
25023;SDS011;13033;50.936;5.334;2023-08-24T09:22:56;8.57;;;4.80;;
25023;SDS011;13033;50.936;5.334;2023-08-24T09:25:23;15.27;;;5.15;;
25023;SDS011;13033;50.936;5.334;2023-08-24T09:27:58;11.63;;;4.07;;
25023;SDS011;13033;50.936;5.334;2023-08-24T09:30:33;9.30;;;4.30;;
25023;SDS011;13033;50.936;5.334;2023-08-24T09:33:03;11.02;;;4.20;;
25023;SDS011;13033;50.936;5.334;2023-08-24T09:35:34;8.70;;;4.65;;
25023;SDS011;13033;50.936;5.334;2023-08-24T09:38:14;7.75;;;4.43;;
25023;SDS011;13033;50.936;5.334;2023-08-24T09:40:45;6.82;;;4.20;;
25023;SDS011;13033;50.936;5.334;2023-08-24T09:43:14;6.93;;;4.55;;
25023;SDS011;13033;50.936;5.334;2023-08-24T09:45:47;10.60;;;4.38;;
25023;SDS011;13033;50.936;5.334;2023-08-24T09:48:16;11.82;;;5.10;;
25023;SDS011;13033;50.936;5.334;2023-08-24T09:50:44;8.13;;;4.65;;
25023;SDS011;13033;50.936;5.334;2023-08-24T09:53:18;12.68;;;4.57;;
25023;SDS011;13033;50.936;5.334;2023-08-24T09:55:49;7.40;;;5.28;;
25023;SDS011;13033;50.936;5.334;2023-08-24T09:58:18;8.63;;;4.55;;
25023;SDS011;13033;50.936;5.334;2023-08-24T10:00:44;7.43;;;4.38;;
25023;SDS011;13033;50.936;5.334;2023-08-24T10:03:12;10.80;;;5.05;;
25023;SDS011;13033;50.936;5.334;2023-08-24T10:05:41;10.38;;;4.90;;
25023;SDS011;13033;50.936;5.334;2023-08-24T10:08:09;11.70;;;5.05;;
25023;SDS011;13033;50.936;5.334;2023-08-24T10:10:35;8.32;;;5.47;;
25023;SDS011;13033;50.936;5.334;2023-08-24T10:13:06;10.80;;;5.13;;
25023;SDS011;13033;50.936;5.334;2023-08-24T10:15:39;10.02;;;5.97;;
25023;SDS011;13033;50.936;5.334;2023-08-24T10:18:11;9.07;;;5.97;;
25023;SDS011;13033;50.936;5.334;2023-08-24T10:20:38;11.80;;;6.15;;
25023;SDS011;13033;50.936;5.334;2023-08-24T10:23:05;11.18;;;5.40;;
25023;SDS011;13033;50.936;5.334;2023-08-24T10:25:31;10.30;;;5.60;;
25023;SDS011;13033;50.936;5.334;2023-08-24T10:27:57;9.82;;;5.82;;
25023;SDS011;13033;50.936;5.334;2023-08-24T10:30:25;11.50;;;5.80;;
25023;SDS011;13033;50.936;5.334;2023-08-24T10:32:54;9.80;;;5.95;;
25023;SDS011;13033;50.936;5.334;2023-08-24T10:35:21;8.80;;;6.13;;
25023;SDS011;13033;50.936;5.334;2023-08-24T10:37:47;12.48;;;7.13;;
25023;SDS011;13033;50.936;5.334;2023-08-24T10:40:13;12.05;;;6.90;;
25023;SDS011;13033;50.936;5.334;2023-08-24T10:42:45;12.40;;;6.85;;
25023;SDS011;13033;50.936;5.334;2023-08-24T10:45:13;10.57;;;6.32;;
25023;SDS011;13033;50.936;5.334;2023-08-24T10:47:43;9.38;;;5.82;;
25023;SDS011;13033;50.936;5.334;2023-08-24T10:50:13;12.93;;;5.82;;
25023;SDS011;13033;50.936;5.334;2023-08-24T10:52:39;9.63;;;5.47;;
25023;SDS011;13033;50.936;5.334;2023-08-24T10:55:21;9.68;;;5.70;;
25023;SDS011;13033;50.936;5.334;2023-08-24T10:57:55;11.05;;;5.82;;
25023;SDS011;13033;50.936;5.334;2023-08-24T11:00:24;11.57;;;6.22;;
25023;SDS011;13033;50.936;5.334;2023-08-24T11:02:54;10.10;;;6.72;;
25023;SDS011;13033;50.936;5.334;2023-08-24T11:05:24;12.55;;;6.50;;
25023;SDS011;13033;50.936;5.334;2023-08-24T11:07:55;14.52;;;6.68;;
25023;SDS011;13033;50.936;5.334;2023-08-24T11:10:25;10.93;;;7.40;;
25023;SDS011;13033;50.936;5.334;2023-08-24T11:15:42;13.10;;;8.18;;
25023;SDS011;13033;50.936;5.334;2023-08-24T11:20:47;13.93;;;8.07;;
25023;SDS011;13033;50.936;5.334;2023-08-24T11:23:17;12.23;;;8.35;;
25023;SDS011;13033;50.936;5.334;2023-08-24T11:25:45;12.20;;;8.70;;
25023;SDS011;13033;50.936;5.334;2023-08-24T11:28:13;12.60;;;9.23;;
25023;SDS011;13033;50.936;5.334;2023-08-24T11:30:42;14.15;;;8.57;;
25023;SDS011;13033;50.936;5.334;2023-08-24T11:33:09;15.65;;;9.27;;
25023;SDS011;13033;50.936;5.334;2023-08-24T11:35:39;15.27;;;8.88;;
25023;SDS011;13033;50.936;5.334;2023-08-24T11:38:09;13.10;;;8.90;;
25023;SDS011;13033;50.936;5.334;2023-08-24T11:40:35;16.63;;;9.55;;
25023;SDS011;13033;50.936;5.334;2023-08-24T11:43:01;11.63;;;9.57;;
25023;SDS011;13033;50.936;5.334;2023-08-24T11:45:30;13.13;;;9.80;;
25023;SDS011;13033;50.936;5.334;2023-08-24T11:48:01;14.43;;;9.25;;
25023;SDS011;13033;50.936;5.334;2023-08-24T11:50:29;15.75;;;9.55;;
25023;SDS011;13033;50.936;5.334;2023-08-24T11:52:56;10.60;;;9.10;;
25023;SDS011;13033;50.936;5.334;2023-08-24T11:55:22;13.52;;;8.70;;
25023;SDS011;13033;50.936;5.334;2023-08-24T11:57:48;13.70;;;9.50;;
25023;SDS011;13033;50.936;5.334;2023-08-24T12:00:14;11.85;;;8.77;;
25023;SDS011;13033;50.936;5.334;2023-08-24T12:02:41;12.15;;;8.95;;
25023;SDS011;13033;50.936;5.334;2023-08-24T12:05:07;14.40;;;9.38;;
25023;SDS011;13033;50.936;5.334;2023-08-24T12:07:45;9.90;;;7.80;;
25023;SDS011;13033;50.936;5.334;2023-08-24T12:10:11;12.23;;;8.07;;
25023;SDS011;13033;50.936;5.334;2023-08-24T12:12:37;11.60;;;8.20;;
25023;SDS011;13033;50.936;5.334;2023-08-24T12:15:03;13.00;;;7.72;;
25023;SDS011;13033;50.936;5.334;2023-08-24T12:17:30;14.32;;;6.10;;
25023;SDS011;13033;50.936;5.334;2023-08-24T12:20:07;11.73;;;6.50;;
25023;SDS011;13033;50.936;5.334;2023-08-24T12:22:37;12.55;;;6.47;;
25023;SDS011;13033;50.936;5.334;2023-08-24T12:25:03;12.63;;;6.47;;
25023;SDS011;13033;50.936;5.334;2023-08-24T12:27:30;10.85;;;6.45;;
25023;SDS011;13033;50.936;5.334;2023-08-24T12:29:59;17.63;;;6.60;;
25023;SDS011;13033;50.936;5.334;2023-08-24T12:32:28;12.40;;;6.15;;
25023;SDS011;13033;50.936;5.334;2023-08-24T12:35:16;8.70;;;4.85;;
25023;SDS011;13033;50.936;5.334;2023-08-24T12:37:41;12.20;;;5.45;;
25023;SDS011;13033;50.936;5.334;2023-08-24T12:40:07;12.13;;;5.60;;
25023;SDS011;13033;50.936;5.334;2023-08-24T12:42:33;9.88;;;5.40;;
25023;SDS011;13033;50.936;5.334;2023-08-24T12:44:59;9.55;;;5.20;;
25023;SDS011;13033;50.936;5.334;2023-08-24T12:47:25;11.20;;;5.57;;
25023;SDS011;13033;50.936;5.334;2023-08-24T12:49:51;13.85;;;5.72;;
25023;SDS011;13033;50.936;5.334;2023-08-24T12:52:19;12.52;;;6.28;;
25023;SDS011;13033;50.936;5.334;2023-08-24T12:54:47;10.25;;;5.43;;
25023;SDS011;13033;50.936;5.334;2023-08-24T12:57:13;9.38;;;5.10;;
25023;SDS011;13033;50.936;5.334;2023-08-24T12:59:39;14.07;;;5.28;;
25023;SDS011;13033;50.936;5.334;2023-08-24T13:02:05;14.35;;;5.70;;
25023;SDS011;13033;50.936;5.334;2023-08-24T13:04:30;22.10;;;6.40;;
25023;SDS011;13033;50.936;5.334;2023-08-24T13:06:57;17.65;;;6.00;;
25023;SDS011;13033;50.936;5.334;2023-08-24T13:09:23;11.77;;;5.95;;
25023;SDS011;13033;50.936;5.334;2023-08-24T13:11:49;8.00;;;5.72;;
25023;SDS011;13033;50.936;5.334;2023-08-24T13:14:15;11.85;;;5.40;;
25023;SDS011;13033;50.936;5.334;2023-08-24T13:16:41;9.77;;;5.35;;
25023;SDS011;13033;50.936;5.334;2023-08-24T13:19:06;9.20;;;5.45;;
25023;SDS011;13033;50.936;5.334;2023-08-24T13:21:32;7.55;;;5.53;;
25023;SDS011;13033;50.936;5.334;2023-08-24T13:23:58;8.98;;;5.10;;
25023;SDS011;13033;50.936;5.334;2023-08-24T13:26:24;7.68;;;4.80;;
25023;SDS011;13033;50.936;5.334;2023-08-24T13:28:49;12.15;;;5.03;;
25023;SDS011;13033;50.936;5.334;2023-08-24T13:31:16;10.27;;;5.13;;
25023;SDS011;13033;50.936;5.334;2023-08-24T13:33:42;12.20;;;5.05;;
25023;SDS011;13033;50.936;5.334;2023-08-24T13:36:07;9.65;;;4.80;;
25023;SDS011;13033;50.936;5.334;2023-08-24T13:38:33;9.38;;;4.50;;
25023;SDS011;13033;50.936;5.334;2023-08-24T13:40:59;7.30;;;4.38;;
25023;SDS011;13033;50.936;5.334;2023-08-24T13:43:25;11.27;;;4.72;;
25023;SDS011;13033;50.936;5.334;2023-08-24T13:45:51;10.05;;;4.50;;
25023;SDS011;13033;50.936;5.334;2023-08-24T13:48:16;9.68;;;4.68;;
25023;SDS011;13033;50.936;5.334;2023-08-24T13:50:48;12.65;;;4.53;;
25023;SDS011;13033;50.936;5.334;2023-08-24T13:53:16;5.07;;;3.60;;
25023;SDS011;13033;50.936;5.334;2023-08-24T13:55:41;6.05;;;3.38;;
25023;SDS011;13033;50.936;5.334;2023-08-24T13:58:08;7.22;;;2.90;;
25023;SDS011;13033;50.936;5.334;2023-08-24T14:00:33;6.85;;;3.00;;
25023;SDS011;13033;50.936;5.334;2023-08-24T14:02:59;4.85;;;2.83;;
25023;SDS011;13033;50.936;5.334;2023-08-24T14:05:25;6.07;;;2.60;;
25023;SDS011;13033;50.936;5.334;2023-08-24T14:07:50;5.70;;;2.42;;
25023;SDS011;13033;50.936;5.334;2023-08-24T14:10:16;5.25;;;2.67;;
25023;SDS011;13033;50.936;5.334;2023-08-24T14:12:43;4.45;;;2.45;;
25023;SDS011;13033;50.936;5.334;2023-08-24T14:15:09;4.97;;;2.25;;
25023;SDS011;13033;50.936;5.334;2023-08-24T14:17:36;6.90;;;2.55;;
25023;SDS011;13033;50.936;5.334;2023-08-24T14:20:02;6.05;;;2.50;;
25023;SDS011;13033;50.936;5.334;2023-08-24T14:22:29;3.65;;;2.00;;
25023;SDS011;13033;50.936;5.334;2023-08-24T14:24:55;7.93;;;2.72;;
25023;SDS011;13033;50.936;5.334;2023-08-24T14:27:20;5.47;;;2.40;;
25023;SDS011;13033;50.936;5.334;2023-08-24T14:29:46;5.82;;;2.47;;
25023;SDS011;13033;50.936;5.334;2023-08-24T14:32:12;7.45;;;2.25;;
25023;SDS011;13033;50.936;5.334;2023-08-24T14:34:38;4.00;;;2.35;;
25023;SDS011;13033;50.936;5.334;2023-08-24T14:37:03;5.20;;;2.38;;
25023;SDS011;13033;50.936;5.334;2023-08-24T14:39:29;4.95;;;2.17;;
25023;SDS011;13033;50.936;5.334;2023-08-24T14:41:55;4.93;;;2.20;;
25023;SDS011;13033;50.936;5.334;2023-08-24T14:44:20;5.65;;;2.15;;
25023;SDS011;13033;50.936;5.334;2023-08-24T14:46:46;9.63;;;2.22;;